Terminal Aerodrome Forecast
Issued by NWS Melbourne, FL

Home | Current Version | Previous Version | Text Only | Print | Product List | Glossary On
Versions: 1 2 3 4 5 6 7 8 9 10 11 12 13
000
FTUS42 KMLB 301120
TAFDAB
TAF
KDAB 301120Z 3012/3112 20004KT P6SM FEW130 SCT200
     FM301400 24004KT P6SM SCT030
     FM301900 12009KT P6SM FEW045
     FM302200 12008KT P6SM SCT045 BKN100
     FM310100 17003KT P6SM FEW050 SCT250=

USA.gov is the U.S. government's official web portal to all federal, state and local government web resources and services.